Time;durP1;ratioP1;P1;durP2;ratioP2;P2;SDS_P1;SDS_P2;PMS_P1;PMS_P2;Temp;Humidity;BMP_temperature;BMP_pressure;BME280_temperature;BME280_humidity;BME280_pressure;Samples;Min_cycle;Max_cycle;Signal;HPM_P1;HPM_P2
2023/09/12 00:05:39;;;;;;;;;;;;;;;20.84;66.73;99451.09;1086607;54;19934;-79
2023/09/12 00:07:20;;;;;;;;;;;;;;;20.84;66.79;99445.66;1087059;47;19943;-79
2023/09/12 00:13:04;;;;;;;;;;;;;;;20.68;67.54;99457.97;1087310;47;19931;-79
2023/09/12 01:27:04;;;;;;;;;;;;;;;19.87;69.00;99451.59;1085603;54;19950;-79
2023/09/12 01:28:09;;;;;;;;;;;;;;;19.79;69.31;99452.66;1084851;47;19964;-79
2023/09/12 01:29:15;;;;;;;;;;;;;;;19.72;69.39;99447.28;1085709;46;19951;-79
2023/09/12 01:30:17;;;;;;;;;;;;;;;19.68;69.87;99453.38;1087120;47;19942;-79
2023/09/12 01:31:21;;;;;;;;;;;;;;;19.64;69.99;99453.00;1087037;47;19942;-78
2023/09/12 01:32:22;;;;;;;;;;;;;;;19.57;70.25;99454.88;1087507;54;20014;-79
2023/09/12 01:33:25;;;;;;;;;;;;;;;19.52;69.92;99455.53;1087645;54;19943;-79
2023/09/12 01:34:26;;;;;;;;;;;;;;;19.50;70.16;99449.53;1087650;54;19965;-79
2023/09/12 01:35:29;;;;;;;;;;;;;;;19.47;70.30;99445.34;1087549;47;19943;-79
2023/09/12 01:36:30;;;;;;;;;;;;;;;19.43;70.51;99441.44;1087768;54;19942;-79
2023/09/12 01:37:34;;;;;;;;;;;;;;;19.43;70.42;99449.56;1087612;46;19973;-78
2023/09/12 01:38:34;;;;;;;;;;;;;;;19.44;69.97;99445.81;1087864;54;19942;-79
2023/09/12 01:39:38;;;;;;;;;;;;;;;19.47;69.81;99453.47;1087697;47;19944;-79
2023/09/12 01:40:42;;;;;;;;;;;;;;;19.45;69.98;99446.63;1087699;47;19942;-79
2023/09/12 01:41:44;;;;;;;;;;;;;;;19.44;70.24;99436.84;1087696;47;19956;-79
2023/09/12 01:42:49;;;;;;;;;;;;;;;19.42;70.02;99445.19;1087819;54;19989;-78
2023/09/12 01:43:52;;;;;;;;;;;;;;;19.44;69.99;99445.81;1087798;51;19949;-79
2023/09/12 01:44:57;;;;;;;;;;;;;;;19.48;70.04;99443.50;1087725;47;19943;-78
2023/09/12 01:45:59;;;;;;;;;;;;;;;19.52;69.76;99435.75;1087684;47;19965;-79
2023/09/12 01:47:05;;;;;;;;;;;;;;;19.53;69.62;99437.41;1094760;39;20168;-78
2023/09/12 01:48:06;;;;;;;;;;;;;;;19.61;69.69;99448.00;1087721;47;19951;-80
2023/09/12 01:49:10;;;;;;;;;;;;;;;19.62;69.30;99442.34;1087678;54;19943;-80
2023/09/12 01:50:12;;;;;;;;;;;;;;;19.65;69.34;99441.06;1087673;54;19957;-79
2023/09/12 01:51:17;;;;;;;;;;;;;;;19.66;69.33;99439.22;1088343;39;20205;-79
2023/09/12 01:52:18;;;;;;;;;;;;;;;19.65;69.58;99435.66;1087665;54;19949;-80
2023/09/12 01:53:21;;;;;;;;;;;;;;;19.64;69.36;99442.97;1087660;54;19998;-80
2023/09/12 01:54:23;;;;;;;;;;;;;;;19.66;69.83;99440.03;1087671;54;19950;-80
2023/09/12 01:55:27;;;;;;;;;;;;;;;19.58;70.48;99441.13;1087809;47;19950;-79
2023/09/12 01:56:28;;;;;;;;;;;;;;;19.64;69.78;99439.44;1087883;47;19969;-79
2023/09/12 01:57:32;;;;;;;;;;;;;;;19.66;69.89;99440.03;1087815;54;19949;-80
2023/09/12 01:58:33;;;;;;;;;;;;;;;19.68;69.84;99437.94;1087880;54;19943;-79
2023/09/12 01:59:39;;;;;;;;;;;;;;;19.68;70.11;99437.94;1087893;47;19951;-79
2023/09/12 02:00:41;;;;;;;;;;;;;;;19.62;70.30;99438.81;1087800;54;19950;-79
2023/09/12 02:01:45;;;;;;;;;;;;;;;19.46;71.42;99440.16;1087938;47;19965;-80
2023/09/12 02:04:32;;;;;;;;;;;;;;;19.32;71.19;99431.28;1088409;47;19922;-80
2023/09/12 02:05:33;;;;;;;;;;;;;;;19.24;71.67;99431.53;1088361;47;19935;-80
2023/09/12 02:08:20;;;;;;;;;;;;;;;19.08;72.50;99441.00;1088565;46;19986;-80
2023/09/12 02:09:21;;;;;;;;;;;;;;;19.03;72.49;99436.22;1088231;47;19942;-79
2023/09/12 02:10:26;;;;;;;;;;;;;;;19.04;72.96;99437.88;1088234;47;19954;-80
2023/09/12 02:11:27;;;;;;;;;;;;;;;19.05;72.40;99430.56;1088249;47;19998;-79
2023/09/12 02:12:30;;;;;;;;;;;;;;;19.14;71.94;99427.41;1088478;39;20480;-79
2023/09/12 02:13:31;;;;;;;;;;;;;;;19.18;71.59;99427.81;1088133;47;19962;-80
2023/09/12 02:14:34;;;;;;;;;;;;;;;19.15;71.67;99431.78;1088087;47;19943;-79
2023/09/12 02:15:37;;;;;;;;;;;;;;;19.23;70.89;99425.28;1088119;54;19950;-80
2023/09/12 02:16:41;;;;;;;;;;;;;;;19.28;70.59;99427.34;1088333;54;19950;-80
2023/09/12 02:17:41;;;;;;;;;;;;;;;19.24;71.13;99426.13;1088245;47;19943;-80
2023/09/12 02:18:43;;;;;;;;;;;;;;;19.13;71.32;99414.91;1088290;54;19926;-80
2023/09/12 02:19:49;;;;;;;;;;;;;;;19.10;71.58;99425.34;1088069;47;19949;-80
2023/09/12 02:20:50;;;;;;;;;;;;;;;19.08;71.27;99422.84;1088212;46;19939;-80
2023/09/12 02:21:53;;;;;;;;;;;;;;;19.04;71.54;99432.47;1088029;47;19998;-80
2023/09/12 02:22:54;;;;;;;;;;;;;;;19.03;71.44;99422.69;1087878;47;19943;-79
2023/09/12 02:23:57;;;;;;;;;;;;;;;19.08;71.46;99428.25;1087813;47;19943;-80
2023/09/12 02:24:58;;;;;;;;;;;;;;;19.13;71.07;99425.75;1087858;47;19950;-80
2023/09/12 02:26:02;;;;;;;;;;;;;;;19.21;70.34;99429.25;1087914;47;20003;-80
2023/09/12 02:27:03;;;;;;;;;;;;;;;19.26;70.44;99421.31;1087737;47;19938;-80
2023/09/12 02:28:07;;;;;;;;;;;;;;;19.26;70.62;99434.88;1087877;54;19957;-80
2023/09/12 02:29:09;;;;;;;;;;;;;;;19.29;70.33;99423.56;1087719;54;20034;-79
2023/09/12 02:30:13;;;;;;;;;;;;;;;19.31;70.05;99421.50;1087688;54;19954;-81
2023/09/12 03:03:15;;;;;;;;;;;;;;;19.24;70.25;99415.28;1087328;47;19954;-79
2023/09/12 03:06:20;;;;;;;;;;;;;;;19.29;69.58;99413.59;1087395;47;20006;-80
2023/09/12 03:07:30;;;;;;;;;;;;;;;19.32;70.00;99406.91;1087120;47;20009;-79
2023/09/12 03:11:49;;;;;;;;;;;;;;;19.17;71.41;99407.19;1087309;47;19938;-80
2023/09/12 03:25:53;;;;;;;;;;;;;;;18.13;75.97;99421.44;1088077;47;19983;-82
2023/09/12 03:35:40;;;;;;;;;;;;;;;18.19;75.32;99423.31;1086668;54;19950;-79
2023/09/12 03:36:49;;;;;;;;;;;;;;;18.28;74.98;99414.97;1086539;54;19981;-79
2023/09/12 03:37:50;;;;;;;;;;;;;;;18.34;74.57;99422.22;1087464;54;19949;-79
2023/09/12 03:38:55;;;;;;;;;;;;;;;18.39;74.22;99411.63;1087539;54;19998;-79
2023/09/12 03:39:56;;;;;;;;;;;;;;;18.34;74.59;99416.81;1087343;54;19957;-79
2023/09/12 03:41:04;;;;;;;;;;;;;;;18.33;74.54;99412.44;1086460;47;20327;-78
2023/09/12 03:42:14;;;;;;;;;;;;;;;18.34;74.58;99423.09;1087075;47;19942;-79
2023/09/12 03:43:17;;;;;;;;;;;;;;;18.32;74.82;99418.94;1087185;47;19977;-79
2023/09/12 03:44:17;;;;;;;;;;;;;;;18.28;74.66;99412.25;1087654;54;20038;-79
2023/09/12 03:45:21;;;;;;;;;;;;;;;18.32;74.65;99410.81;1087530;54;19942;-79
2023/09/12 03:46:21;;;;;;;;;;;;;;;18.33;74.31;99409.75;1087500;47;20016;-79
2023/09/12 03:47:25;;;;;;;;;;;;;;;18.31;74.43;99414.56;1087415;54;19974;-78
2023/09/12 03:48:26;;;;;;;;;;;;;;;18.29;74.64;99413.94;1087455;54;19950;-79
2023/09/12 03:49:30;;;;;;;;;;;;;;;18.31;74.33;99412.66;1087656;54;19950;-79
2023/09/12 03:50:31;;;;;;;;;;;;;;;18.35;74.13;99419.34;1087778;47;19950;-80
2023/09/12 03:51:35;;;;;;;;;;;;;;;18.32;74.21;99417.03;1087705;54;19954;-79
2023/09/12 03:52:38;;;;;;;;;;;;;;;18.29;74.75;99419.34;1087638;54;19942;-80
2023/09/12 03:53:38;;;;;;;;;;;;;;;18.21;74.89;99423.94;1087620;54;19950;-80
2023/09/12 03:54:42;;;;;;;;;;;;;;;18.23;74.76;99416.41;1087639;54;19949;-80
2023/09/12 03:55:42;;;;;;;;;;;;;;;18.24;75.03;99419.97;1087466;54;19969;-80
2023/09/12 03:56:49;;;;;;;;;;;;;;;18.22;74.99;99422.06;1087891;47;19965;-80
2023/09/12 03:57:50;;;;;;;;;;;;;;;18.21;74.87;99423.94;1087687;47;19943;-80
2023/09/12 03:58:57;;;;;;;;;;;;;;;18.23;74.94;99421.81;1087374;54;19966;-80
2023/09/12 03:59:58;;;;;;;;;;;;;;;18.22;74.88;99424.75;1087667;54;19934;-80
2023/09/12 04:01:02;;;;;;;;;;;;;;;18.29;74.43;99422.03;1087768;47;19938;-79
2023/09/12 04:02:04;;;;;;;;;;;;;;;18.37;74.19;99411.81;1087866;54;19957;-79
2023/09/12 04:03:07;;;;;;;;;;;;;;;18.44;73.84;99411.00;1087744;47;19949;-81
2023/09/12 04:04:08;;;;;;;;;;;;;;;18.47;74.01;99421.38;1087757;47;19947;-80
2023/09/12 04:05:19;;;;;;;;;;;;;;;18.49;73.58;99412.03;1087749;54;19943;-80
2023/09/12 04:06:23;;;;;;;;;;;;;;;18.52;73.45;99408.88;1087931;54;19942;-79
2023/09/12 04:07:27;;;;;;;;;;;;;;;18.58;73.16;99411.78;1087769;47;19977;-80
2023/09/12 04:08:39;;;;;;;;;;;;;;;18.59;73.20;99405.34;1087950;47;19958;-80
2023/09/12 04:09:57;;;;;;;;;;;;;;;18.61;73.16;99408.66;1087760;54;19942;-80
2023/09/12 04:11:02;;;;;;;;;;;;;;;18.65;72.52;99409.88;1087670;47;19949;-80
2023/09/12 04:12:09;;;;;;;;;;;;;;;18.69;72.51;99411.94;1087665;47;19942;-80
2023/09/12 04:13:10;;;;;;;;;;;;;;;18.71;72.32;99403.59;1086560;54;19965;-80
2023/09/12 04:14:14;;;;;;;;;;;;;;;18.69;72.82;99403.00;1085127;47;20457;-79
2023/09/12 04:15:15;;;;;;;;;;;;;;;18.64;72.82;99400.94;1086419;39;20165;-80
2023/09/12 04:16:19;;;;;;;;;;;;;;;18.67;72.82;99399.69;1086589;54;19946;-81
2023/09/12 04:17:19;;;;;;;;;;;;;;;18.61;72.88;99400.53;1086428;39;20347;-80
2023/09/12 04:18:24;;;;;;;;;;;;;;;18.63;72.79;99401.97;1086284;47;19951;-80
2023/09/12 04:19:25;;;;;;;;;;;;;;;18.65;72.67;99402.59;1086500;54;19950;-80
2023/09/12 04:20:28;;;;;;;;;;;;;;;18.70;72.58;99407.38;1086147;54;19958;-79
2023/09/12 04:21:31;;;;;;;;;;;;;;;18.74;72.22;99414.00;1086785;54;20537;-80
2023/09/12 04:22:42;;;;;;;;;;;;;;;18.75;72.09;99412.16;1087180;47;19989;-81
2023/09/12 04:23:43;;;;;;;;;;;;;;;18.74;72.10;99414.00;1087381;47;19943;-79
2023/09/12 04:34:04;;;;;;;;;;;;;;;18.72;73.08;99402.56;1087602;47;19931;-82
2023/09/12 04:35:09;;;;;;;;;;;;;;;18.79;72.48;99410.66;1087601;47;19943;-81
2023/09/12 04:37:41;;;;;;;;;;;;;;;18.81;72.37;99414.81;1087687;47;19942;-79
2023/09/12 04:38:44;;;;;;;;;;;;;;;18.84;72.10;99411.69;1087911;54;19939;-80
2023/09/12 04:39:48;;;;;;;;;;;;;;;18.79;72.63;99403.38;1086828;47;19954;-79
2023/09/12 04:42:48;;;;;;;;;;;;;;;18.73;72.76;99404.22;1087638;47;19926;-80
2023/09/12 04:59:35;;;;;;;;;;;;;;;18.87;71.73;99421.25;1087407;47;20005;-80
2023/09/12 07:41:02;;;;;;;;;;;;;;;21.46;61.09;99465.56;1086991;54;19954;-80
2023/09/12 07:50:24;;;;;;;;;;;;;;;21.86;60.03;99467.75;1087778;47;19983;-82
2023/09/12 07:51:29;;;;;;;;;;;;;;;22.03;59.37;99461.59;1087596;47;19981;-83
2023/09/12 08:18:04;;;;;;;;;;;;;;;23.93;55.41;99463.91;1084628;54;19950;-80
2023/09/12 08:19:04;;;;;;;;;;;;;;;24.06;55.48;99465.53;1083124;51;19946;-81
2023/09/12 08:20:09;;;;;;;;;;;;;;;24.19;54.93;99467.09;1083018;54;19950;-78
2023/09/12 08:21:10;;;;;;;;;;;;;;;24.24;54.65;99472.66;1083317;54;20078;-80
2023/09/12 08:22:14;;;;;;;;;;;;;;;24.12;55.03;99470.81;1082744;47;19947;-80
2023/09/12 08:23:17;;;;;;;;;;;;;;;24.38;54.60;99468.47;1082761;54;20066;-78
2023/09/12 08:24:23;;;;;;;;;;;;;;;24.44;54.11;99475.69;1082452;47;19998;-81
2023/09/12 08:25:25;;;;;;;;;;;;;;;24.65;53.88;99470.53;1083221;47;19950;-79
2023/09/12 08:26:28;;;;;;;;;;;;;;;24.80;53.75;99474.56;1082469;47;19994;-80
2023/09/12 08:27:30;;;;;;;;;;;;;;;24.97;53.70;99467.13;1082870;47;19946;-80
2023/09/12 08:28:33;;;;;;;;;;;;;;;25.15;52.83;99476.94;1083195;54;20443;-80
2023/09/12 08:29:34;;;;;;;;;;;;;;;25.37;52.84;99462.38;1083858;47;19946;-80
2023/09/12 08:30:35;;;;;;;;;;;;;;;25.56;52.40;99465.63;1084556;39;20221;-80
2023/09/12 08:31:38;;;;;;;;;;;;;;;25.65;52.10;99469.56;1083741;47;19973;-79
2023/09/12 08:32:39;;;;;;;;;;;;;;;25.65;51.78;99464.06;1083409;54;20032;-80
2023/09/12 08:33:45;;;;;;;;;;;;;;;25.74;52.11;99460.88;1083420;54;19993;-80
2023/09/12 08:34:46;;;;;;;;;;;;;;;25.87;51.61;99459.59;1083360;47;19973;-79
2023/09/12 08:35:50;;;;;;;;;;;;;;;25.81;51.65;99461.47;1083348;47;19969;-79
2023/09/12 08:36:51;;;;;;;;;;;;;;;25.76;51.41;99465.00;1085015;54;19951;-80
2023/09/12 08:37:54;;;;;;;;;;;;;;;25.64;51.53;99461.63;1084662;39;20110;-79
2023/09/12 08:38:55;;;;;;;;;;;;;;;25.70;51.76;99466.84;1083037;47;19946;-79
2023/09/12 08:39:59;;;;;;;;;;;;;;;25.80;51.54;99468.03;1083663;54;20006;-79
2023/09/12 08:40:59;;;;;;;;;;;;;;;25.97;51.58;99463.28;1083284;54;19950;-79
2023/09/12 08:42:03;;;;;;;;;;;;;;;26.21;51.05;99460.19;1082492;47;19950;-79
2023/09/12 08:43:03;;;;;;;;;;;;;;;26.14;51.02;99463.16;1082535;54;19947;-78
2023/09/12 08:44:08;;;;;;;;;;;;;;;26.36;50.86;99458.63;1084705;54;19947;-79
2023/09/12 08:45:12;;;;;;;;;;;;;;;26.51;50.76;99453.25;1083189;54;19947;-79
2023/09/12 08:46:16;;;;;;;;;;;;;;;26.66;50.31;99447.03;1083208;54;19947;-79
2023/09/12 08:47:19;;;;;;;;;;;;;;;26.87;49.62;99455.41;1084547;54;20070;-80
2023/09/12 08:48:24;;;;;;;;;;;;;;;26.97;49.74;99454.59;1082803;46;19971;-80
2023/09/12 08:49:28;;;;;;;;;;;;;;;27.23;49.11;99447.31;1083327;46;19955;-78
2023/09/12 08:50:34;;;;;;;;;;;;;;;27.31;49.15;99448.66;1083366;47;19951;-79
2023/09/12 08:51:34;;;;;;;;;;;;;;;27.48;48.60;99443.81;1084054;54;20635;-79
2023/09/12 08:52:37;;;;;;;;;;;;;;;27.65;48.18;99440.00;1083335;47;19976;-80
2023/09/12 08:53:38;;;;;;;;;;;;;;;27.84;47.60;99446.59;1082178;47;19950;-79
2023/09/12 08:54:41;;;;;;;;;;;;;;;27.88;47.25;99433.13;1082290;54;19996;-80
2023/09/12 08:55:42;;;;;;;;;;;;;;;27.99;47.37;99442.19;1081660;54;19946;-79
2023/09/12 08:56:45;;;;;;;;;;;;;;;28.11;47.26;99440.03;1081588;47;19954;-80
2023/09/12 08:57:49;;;;;;;;;;;;;;;28.14;46.55;99447.72;1082023;47;20268;-80
2023/09/12 08:58:51;;;;;;;;;;;;;;;28.29;47.11;99448.78;1082574;47;19965;-81
2023/09/12 08:59:55;;;;;;;;;;;;;;;28.30;46.26;99447.69;1083784;47;19947;-80
2023/09/12 09:00:56;;;;;;;;;;;;;;;28.42;46.82;99444.63;1082950;54;19947;-81
2023/09/12 09:02:00;;;;;;;;;;;;;;;28.49;46.06;99443.25;1082654;39;20361;-81
2023/09/12 09:03:02;;;;;;;;;;;;;;;28.14;45.56;99439.47;1082472;54;19953;-81
2023/09/12 09:04:06;;;;;;;;;;;;;;;27.98;45.41;99443.28;1082015;47;19997;-81
2023/09/12 09:05:11;;;;;;;;;;;;;;;28.09;45.43;99441.41;1082025;54;19950;-80
2023/09/12 09:06:15;;;;;;;;;;;;;;;28.09;45.18;99436.72;1081867;54;19973;-80
2023/09/12 09:07:16;;;;;;;;;;;;;;;28.27;45.07;99435.34;1082007;54;19972;-82
2023/09/12 09:08:20;;;;;;;;;;;;;;;28.51;44.60;99436.66;1082119;39;20884;-80
2023/09/12 09:09:21;;;;;;;;;;;;;;;28.63;44.38;99428.91;1082113;39;20757;-80
2023/09/12 09:10:22;;;;;;;;;;;;;;;28.69;44.03;99430.56;1081722;54;19953;-79
2023/09/12 09:11:27;;;;;;;;;;;;;;;28.67;43.79;99421.75;1082663;39;20320;-80
2023/09/12 09:12:28;;;;;;;;;;;;;;;28.91;42.91;99423.88;1082219;54;19946;-80
2023/09/12 09:13:31;;;;;;;;;;;;;;;28.98;43.08;99429.91;1082344;47;20019;-81
2023/09/12 09:14:32;;;;;;;;;;;;;;;28.86;42.79;99426.66;1082136;54;19951;-79
2023/09/12 09:15:37;;;;;;;;;;;;;;;28.55;42.94;99432.22;1082169;47;20757;-82
2023/09/12 09:16:37;;;;;;;;;;;;;;;28.52;43.47;99436.38;1082094;47;19977;-82
2023/09/12 09:17:41;;;;;;;;;;;;;;;28.55;43.21;99433.06;1081961;47;19951;-80
2023/09/12 09:18:54;;;;;;;;;;;;;;;28.47;42.93;99437.22;1081351;47;19950;-80
2023/09/12 09:19:59;;;;;;;;;;;;;;;28.54;43.47;99430.59;1081178;47;19990;-81
2023/09/12 09:21:16;;;;;;;;;;;;;;;28.86;42.74;99426.66;1081437;47;19946;-81
2023/09/12 09:22:19;;;;;;;;;;;;;;;28.92;42.35;99428.28;1081464;54;20455;-83
2023/09/12 09:23:21;;;;;;;;;;;;;;;28.88;42.35;99430.75;1081644;54;19950;-80
2023/09/12 09:24:24;;;;;;;;;;;;;;;28.70;42.72;99423.94;1082584;47;19977;-83
2023/09/12 09:25:25;;;;;;;;;;;;;;;28.86;42.28;99429.41;1085131;47;20065;-81
2023/09/12 09:26:42;;;;;;;;;;;;;;;28.69;42.33;99433.31;1087136;54;20755;-84
2023/09/12 09:27:44;;;;;;;;;;;;;;;28.64;42.57;99430.56;1085901;46;19946;-81
2023/09/12 09:28:48;;;;;;;;;;;;;;;28.73;42.67;99428.91;1085821;54;19939;-80
2023/09/12 09:29:50;;;;;;;;;;;;;;;28.49;43.12;99435.00;1086009;47;19938;-81
2023/09/12 09:30:54;;;;;;;;;;;;;;;28.64;43.07;99425.06;1086153;54;20821;-80
2023/09/12 09:31:55;;;;;;;;;;;;;;;29.00;42.43;99427.69;1085385;54;20041;-81
2023/09/12 09:32:58;;;;;;;;;;;;;;;29.05;42.28;99424.91;1085675;54;19951;-80
2023/09/12 09:33:59;;;;;;;;;;;;;;;29.06;42.13;99428.47;1084476;47;19947;-81
2023/09/12 09:35:03;;;;;;;;;;;;;;;28.91;42.20;99424.72;1084799;47;19976;-82
2023/09/12 09:36:07;;;;;;;;;;;;;;;29.23;42.12;99422.63;1083738;47;19975;-80
2023/09/12 09:37:15;;;;;;;;;;;;;;;29.20;42.07;99420.41;1083891;54;19947;-80
2023/09/12 09:38:18;;;;;;;;;;;;;;;29.37;41.76;99420.09;1084310;54;19953;-79
2023/09/12 09:39:22;;;;;;;;;;;;;;;29.51;41.44;99420.25;1083659;54;20026;-80
2023/09/12 09:40:23;;;;;;;;;;;;;;;29.30;41.63;99419.56;1083475;39;20348;-79
2023/09/12 09:41:24;;;;;;;;;;;;;;;29.36;41.01;99426.69;1085028;54;19982;-79
2023/09/12 09:42:31;;;;;;;;;;;;;;;29.38;41.35;99422.53;1084323;47;19939;-82
2023/09/12 09:43:32;;;;;;;;;;;;;;;29.54;41.25;99417.75;1085226;54;19943;-86
2023/09/12 09:44:36;;;;;;;;;;;;;;;29.53;41.57;99415.28;1084957;46;19939;-81
2023/09/12 09:45:43;;;;;;;;;;;;;;;29.26;41.85;99422.06;1083864;47;19962;-81
2023/09/12 09:46:47;;;;;;;;;;;;;;;29.28;41.68;99422.59;1082114;54;19954;-80
2023/09/12 09:47:49;;;;;;;;;;;;;;;29.18;42.03;99417.16;1081702;54;19950;-79
2023/09/12 09:48:53;;;;;;;;;;;;;;;29.55;40.85;99421.34;1081796;54;19951;-79
2023/09/12 09:49:57;;;;;;;;;;;;;;;29.75;40.95;99403.03;1081908;47;19954;-79
2023/09/12 09:51:03;;;;;;;;;;;;;;;29.97;40.59;99414.41;1082253;47;19958;-80
2023/09/12 09:52:06;;;;;;;;;;;;;;;30.18;40.36;99406.75;1083004;47;19946;-80
2023/09/12 09:53:10;;;;;;;;;;;;;;;30.11;40.40;99405.47;1084287;47;19969;-80
2023/09/12 09:54:11;;;;;;;;;;;;;;;29.56;41.12;99417.50;1083360;54;19946;-80
2023/09/12 09:55:16;;;;;;;;;;;;;;;29.66;41.13;99406.38;1083186;47;19951;-79
2023/09/12 09:56:17;;;;;;;;;;;;;;;29.72;40.67;99410.75;1083534;54;20458;-80
2023/09/12 09:57:20;;;;;;;;;;;;;;;30.07;40.35;99408.00;1084031;47;20062;-80
2023/09/12 09:58:23;;;;;;;;;;;;;;;30.22;40.03;99407.03;1083612;54;19970;-80
2023/09/12 09:59:27;;;;;;;;;;;;;;;30.32;40.10;99406.88;1084290;54;19946;-80
2023/09/12 10:00:29;;;;;;;;;;;;;;;30.28;39.70;99403.09;1085332;39;20476;-80
2023/09/12 10:01:33;;;;;;;;;;;;;;;30.33;39.94;99396.69;1084586;39;20732;-80
2023/09/12 10:02:36;;;;;;;;;;;;;;;30.55;39.48;99396.19;1083433;54;19968;-79
2023/09/12 10:03:38;;;;;;;;;;;;;;;30.40;39.86;99399.91;1083495;47;19997;-80
2023/09/12 10:04:44;;;;;;;;;;;;;;;30.35;40.19;99405.50;1083624;39;20397;-80
2023/09/12 10:05:46;;;;;;;;;;;;;;;30.42;39.90;99405.16;1083040;47;19946;-79
2023/09/12 10:06:49;;;;;;;;;;;;;;;30.73;39.63;99400.13;1082634;47;19950;-79
2023/09/12 10:07:54;;;;;;;;;;;;;;;30.83;39.67;99398.34;1083413;54;19946;-79
2023/09/12 10:09:00;;;;;;;;;;;;;;;31.13;39.52;99396.31;1084057;39;20369;-79
2023/09/12 10:10:02;;;;;;;;;;;;;;;31.21;38.98;99398.41;1083442;47;19986;-79
2023/09/12 10:11:06;;;;;;;;;;;;;;;31.42;38.71;99396.97;1083930;54;19973;-79
2023/09/12 10:12:07;;;;;;;;;;;;;;;31.43;38.22;99398.59;1084395;47;19946;-80
2023/09/12 10:13:11;;;;;;;;;;;;;;;31.63;38.32;99395.84;1082824;46;20613;-79
2023/09/12 10:14:12;;;;;;;;;;;;;;;31.85;37.84;99393.25;1083743;54;19946;-81
2023/09/12 10:15:16;;;;;;;;;;;;;;;32.12;37.65;99388.91;1083635;47;19947;-80
2023/09/12 10:16:18;;;;;;;;;;;;;;;32.02;37.01;99389.94;1084069;54;19958;-82
2023/09/12 10:17:23;;;;;;;;;;;;;;;32.06;37.08;99387.38;1083438;47;19977;-79
2023/09/12 10:18:25;;;;;;;;;;;;;;;32.00;37.14;99385.84;1083193;54;19951;-80
2023/09/12 10:19:30;;;;;;;;;;;;;;;32.21;36.94;99392.59;1082716;46;19998;-79
2023/09/12 10:20:35;;;;;;;;;;;;;;;32.24;36.73;99384.84;1082744;54;19946;-80
2023/09/12 10:21:38;;;;;;;;;;;;;;;31.81;37.16;99388.63;1083841;46;19947;-80
2023/09/12 10:22:40;;;;;;;;;;;;;;;31.62;37.61;99389.47;1086277;39;20418;-81
2023/09/12 10:23:50;;;;;;;;;;;;;;;31.63;37.31;99384.78;1085216;47;19950;-80
2023/09/12 10:24:52;;;;;;;;;;;;;;;31.37;37.65;99390.69;1085465;47;19950;-80
2023/09/12 10:25:57;;;;;;;;;;;;;;;31.42;37.74;99387.88;1085110;47;19950;-79
2023/09/12 10:26:58;;;;;;;;;;;;;;;31.49;37.61;99382.78;1084694;47;19950;-82
2023/09/12 10:28:01;;;;;;;;;;;;;;;31.64;37.48;99390.00;1085166;47;20030;-79
2023/09/12 10:29:02;;;;;;;;;;;;;;;31.86;37.00;99374.75;1086345;47;19943;-79
2023/09/12 10:30:07;;;;;;;;;;;;;;;31.96;37.00;99379.25;1086677;54;19966;-82
2023/09/12 10:31:08;;;;;;;;;;;;;;;32.24;36.57;99379.31;1087436;54;20011;-80
2023/09/12 10:32:11;;;;;;;;;;;;;;;32.36;35.94;99374.94;1087107;47;19966;-82
2023/09/12 10:33:13;;;;;;;;;;;;;;;32.40;36.00;99372.41;1086646;54;19972;-80
2023/09/12 10:34:17;;;;;;;;;;;;;;;32.55;35.73;99370.44;1086898;54;19951;-80
2023/09/12 10:35:21;;;;;;;;;;;;;;;32.69;35.75;99362.91;1086449;54;19950;-79
2023/09/12 10:36:27;;;;;;;;;;;;;;;32.93;35.57;99370.19;1086674;46;19968;-81
2023/09/12 10:37:29;;;;;;;;;;;;;;;32.98;35.42;99367.31;1086908;47;20627;-81
2023/09/12 10:38:32;;;;;;;;;;;;;;;33.10;35.20;99369.53;1087016;39;20792;-80
2023/09/12 10:39:36;;;;;;;;;;;;;;;33.26;35.03;99354.19;1085906;54;19954;-81
2023/09/12 10:40:39;;;;;;;;;;;;;;;33.38;34.89;99359.19;1084982;54;20454;-80
2023/09/12 10:41:40;;;;;;;;;;;;;;;33.43;34.73;99358.25;1083924;47;20648;-80
2023/09/12 10:42:45;;;;;;;;;;;;;;;33.44;34.69;99366.25;1085082;47;19950;-80
2023/09/12 10:43:50;;;;;;;;;;;;;;;33.43;34.31;99367.41;1085384;54;20046;-81
2023/09/12 10:44:54;;;;;;;;;;;;;;;33.20;34.55;99374.00;1084948;54;19954;-81
2023/09/12 10:45:55;;;;;;;;;;;;;;;32.79;34.90;99371.03;1084565;46;20038;-82
2023/09/12 10:46:58;;;;;;;;;;;;;;;32.93;35.40;99372.97;1084868;39;20630;-81
2023/09/12 10:47:59;;;;;;;;;;;;;;;33.04;35.45;99366.06;1085007;54;19968;-81
2023/09/12 10:49:00;;;;;;;;;;;;;;;33.14;34.50;99373.31;1083815;54;19989;-80
2023/09/12 10:50:04;;;;;;;;;;;;;;;33.09;34.40;99368.72;1084597;54;20002;-81
2023/09/12 10:51:05;;;;;;;;;;;;;;;33.17;34.37;99361.63;1085443;47;20006;-80
2023/09/12 10:52:08;;;;;;;;;;;;;;;33.06;34.36;99374.91;1084396;39;20719;-81
2023/09/12 10:53:12;;;;;;;;;;;;;;;32.85;34.45;99365.41;1084172;54;19951;-81
2023/09/12 10:54:15;;;;;;;;;;;;;;;32.78;34.87;99372.16;1084169;47;19951;-79
2023/09/12 10:55:19;;;;;;;;;;;;;;;32.90;35.19;99368.03;1083860;47;19972;-80
2023/09/12 10:56:29;;;;;;;;;;;;;;;33.00;34.61;99373.34;1083975;54;19950;-81
2023/09/12 10:57:29;;;;;;;;;;;;;;;32.83;34.96;99368.47;1083707;47;19947;-81
2023/09/12 10:58:33;;;;;;;;;;;;;;;32.81;34.89;99370.75;1083327;47;19992;-80
2023/09/12 10:59:35;;;;;;;;;;;;;;;32.63;35.59;99364.16;1084134;47;19974;-80
2023/09/12 11:00:40;;;;;;;;;;;;;;;32.64;35.62;99371.34;1086155;47;19951;-79
2023/09/12 11:01:42;;;;;;;;;;;;;;;32.59;35.46;99368.69;1086156;54;19957;-78
2023/09/12 11:02:45;;;;;;;;;;;;;;;32.49;35.93;99362.25;1085598;47;19950;-80
2023/09/12 11:03:46;;;;;;;;;;;;;;;32.44;35.73;99369.81;1086272;47;19957;-80
2023/09/12 11:04:49;;;;;;;;;;;;;;;32.40;35.85;99361.34;1085844;47;19986;-80
2023/09/12 11:05:52;;;;;;;;;;;;;;;32.13;36.23;99362.91;1085313;54;20030;-80
2023/09/12 11:06:56;;;;;;;;;;;;;;;31.97;36.49;99359.63;1086240;39;20383;-80
2023/09/12 11:07:58;;;;;;;;;;;;;;;32.03;36.50;99357.56;1084816;47;20406;-81
2023/09/12 11:09:16;;;;;;;;;;;;;;;31.92;36.83;99358.91;1083901;54;19953;-81
2023/09/12 11:10:23;;;;;;;;;;;;;;;31.67;36.57;99358.19;1083470;54;19973;-79
2023/09/12 11:11:26;;;;;;;;;;;;;;;31.54;36.82;99368.06;1083790;47;19996;-80
2023/09/12 11:12:34;;;;;;;;;;;;;;;31.52;36.76;99354.56;1084322;54;19982;-80
2023/09/12 11:13:41;;;;;;;;;;;;;;;31.16;37.43;99360.66;1084072;47;19950;-81
2023/09/12 11:14:57;;;;;;;;;;;;;;;31.31;37.50;99361.53;1084639;47;19958;-78
2023/09/12 11:16:21;;;;;;;;;;;;;;;30.99;37.38;99357.56;1083660;47;20369;-79
2023/09/12 11:17:22;;;;;;;;;;;;;;;30.90;37.82;99351.91;1083258;54;19970;-77
2023/09/12 11:18:26;;;;;;;;;;;;;;;30.60;38.21;99362.22;1084479;39;20811;-78
2023/09/12 11:19:27;;;;;;;;;;;;;;;30.62;38.58;99363.56;1084267;47;19950;-79
2023/09/12 11:20:50;;;;;;;;;;;;;;;30.74;38.52;99362.31;1084478;54;19957;-80
2023/09/12 11:21:51;;;;;;;;;;;;;;;30.55;38.82;99368.63;1084014;47;19950;-79
2023/09/12 11:22:55;;;;;;;;;;;;;;;30.70;38.88;99362.09;1085401;39;20010;-79
2023/09/12 11:23:55;;;;;;;;;;;;;;;30.73;38.75;99367.03;1084059;54;19950;-80
2023/09/12 11:24:57;;;;;;;;;;;;;;;30.58;38.83;99359.78;1084439;47;20476;-78
2023/09/12 11:26:11;;;;;;;;;;;;;;;30.65;38.34;99356.66;1084569;54;19950;-78
2023/09/12 11:27:11;;;;;;;;;;;;;;;30.54;38.51;99355.94;1084193;47;19972;-79
2023/09/12 11:28:15;;;;;;;;;;;;;;;30.52;38.49;99349.91;1083783;54;19950;-78
2023/09/12 11:29:15;;;;;;;;;;;;;;;30.60;38.36;99351.19;1084272;47;19951;-80
2023/09/12 11:30:19;;;;;;;;;;;;;;;30.65;38.59;99359.41;1083175;47;19993;-78
2023/09/12 11:31:24;;;;;;;;;;;;;;;30.62;38.42;99354.47;1083651;54;20533;-79
2023/09/12 11:32:29;;;;;;;;;;;;;;;30.63;38.29;99356.13;1084292;54;20012;-79
2023/09/12 11:33:31;;;;;;;;;;;;;;;30.61;38.35;99353.66;1084501;54;19950;-78
2023/09/12 11:34:39;;;;;;;;;;;;;;;30.65;38.39;99360.22;1084866;39;20796;-78
2023/09/12 11:35:40;;;;;;;;;;;;;;;30.66;38.59;99355.53;1087003;39;20232;-79
2023/09/12 11:36:44;;;;;;;;;;;;;;;30.56;38.56;99356.47;1084851;54;19969;-79
2023/09/12 11:37:48;;;;;;;;;;;;;;;30.55;38.89;99352.09;1084833;47;19946;-79
2023/09/12 11:38:52;;;;;;;;;;;;;;;30.45;38.87;99350.25;1085590;31;20406;-78
2023/09/12 11:39:53;;;;;;;;;;;;;;;30.51;39.10;99345.50;1084759;54;19950;-78